createdAt,value
2023-05-05T00:01:42.143Z,7.60
2023-05-05T00:04:10.710Z,7.40
2023-05-05T00:06:39.677Z,7.60
2023-05-05T00:09:08.556Z,10.10
2023-05-05T00:11:37.762Z,7.60
2023-05-05T00:14:07.053Z,8.50
2023-05-05T00:16:35.766Z,7.30
2023-05-05T00:19:04.633Z,7.80
2023-05-05T00:21:33.532Z,7.80
2023-05-05T00:24:03.585Z,7.60
2023-05-05T00:26:32.334Z,7.60
2023-05-05T00:29:01.533Z,7.30
2023-05-05T00:31:30.664Z,8.30
2023-05-05T00:33:59.410Z,6.70
2023-05-05T00:36:28.917Z,7.80
2023-05-05T00:38:57.486Z,7.70
2023-05-05T00:41:26.499Z,7.20
2023-05-05T00:43:55.799Z,7.20
2023-05-05T00:46:27.450Z,6.50
2023-05-05T00:48:57.214Z,6.70
2023-05-05T00:51:26.979Z,7.40
2023-05-05T00:53:55.761Z,8.00
2023-05-05T00:56:27.742Z,8.30
2023-05-05T00:58:56.833Z,7.90
2023-05-05T01:01:26.237Z,8.90
2023-05-05T01:03:56.061Z,8.40
2023-05-05T01:07:02.603Z,8.00
2023-05-05T01:09:56.153Z,8.30
2023-05-05T01:12:39.022Z,7.90
2023-05-05T01:15:31.113Z,8.50
2023-05-05T01:18:08.717Z,8.40
2023-05-05T01:21:06.577Z,8.80
2023-05-05T01:24:00.267Z,8.50
2023-05-05T01:26:47.677Z,7.80
2023-05-05T01:29:52.018Z,6.70
2023-05-05T01:32:27.672Z,7.80
2023-05-05T01:35:02.852Z,7.60
2023-05-05T01:38:13.882Z,7.50
2023-05-05T01:41:05.810Z,7.70
2023-05-05T01:43:36.036Z,8.40
2023-05-05T01:46:06.536Z,8.40
2023-05-05T01:48:35.654Z,8.50
2023-05-05T01:51:06.123Z,8.20
2023-05-05T01:53:36.065Z,8.40
2023-05-05T01:56:05.590Z,8.60
2023-05-05T01:58:35.289Z,8.70
2023-05-05T02:01:04.532Z,8.90
2023-05-05T02:03:34.357Z,8.40
2023-05-05T02:06:03.450Z,8.70
2023-05-05T02:08:32.701Z,8.10
2023-05-05T02:11:01.579Z,8.40
2023-05-05T02:13:32.921Z,7.90
2023-05-05T02:16:02.089Z,8.10
2023-05-05T02:18:36.457Z,8.40
2023-05-05T02:21:05.749Z,7.60
2023-05-05T02:23:34.566Z,8.10
2023-05-05T02:26:08.150Z,7.70
2023-05-05T02:28:49.837Z,8.00
2023-05-05T02:31:21.798Z,7.70
2023-05-05T02:33:51.524Z,8.50
2023-05-05T02:36:23.317Z,7.90
2023-05-05T02:39:03.769Z,7.20
2023-05-05T02:41:36.925Z,6.90
2023-05-05T02:44:11.144Z,7.30
2023-05-05T02:46:40.671Z,7.70
2023-05-05T02:49:09.529Z,6.90
2023-05-05T02:51:39.150Z,7.00
2023-05-05T02:54:10.501Z,7.10
2023-05-05T02:56:49.462Z,6.90
2023-05-05T02:59:39.611Z,7.10
2023-05-05T03:02:29.307Z,7.10
2023-05-05T03:05:03.618Z,7.30
2023-05-05T03:07:39.615Z,7.10
2023-05-05T03:10:14.539Z,7.70
2023-05-05T03:13:07.616Z,7.20
2023-05-05T03:15:51.987Z,6.70
2023-05-05T03:18:23.934Z,7.20
2023-05-05T03:20:58.453Z,6.60
2023-05-05T03:23:27.579Z,6.70
2023-05-05T03:25:59.116Z,7.10
2023-05-05T03:28:31.644Z,8.60
2023-05-05T03:31:03.779Z,7.80
2023-05-05T03:33:33.005Z,7.40
2023-05-05T03:36:02.497Z,7.10
2023-05-05T03:38:31.490Z,8.20
2023-05-05T03:41:04.036Z,7.80
2023-05-05T03:43:33.044Z,6.80
2023-05-05T03:46:02.459Z,6.40
2023-05-05T03:48:32.157Z,7.10
2023-05-05T03:51:01.242Z,6.60
2023-05-05T03:53:31.052Z,7.20
2023-05-05T03:56:01.794Z,7.10
2023-05-05T03:58:30.364Z,7.20
2023-05-05T04:00:59.058Z,7.40
2023-05-05T04:03:27.876Z,7.20
2023-05-05T04:05:57.158Z,7.30
2023-05-05T04:08:26.335Z,7.10
2023-05-05T04:10:55.145Z,6.80
2023-05-05T04:13:24.642Z,7.50
2023-05-05T04:15:53.455Z,7.60
2023-05-05T04:18:22.520Z,8.30
2023-05-05T04:20:51.920Z,7.00
2023-05-05T04:23:21.144Z,7.60
2023-05-05T04:25:50.423Z,7.10
2023-05-05T04:28:21.826Z,7.30
2023-05-05T04:30:50.956Z,7.00
2023-05-05T04:33:20.685Z,6.90
2023-05-05T04:35:50.699Z,5.90
2023-05-05T04:38:21.254Z,6.40
2023-05-05T04:40:50.325Z,7.70
2023-05-05T04:43:20.440Z,7.00
2023-05-05T04:45:56.130Z,6.90
2023-05-05T04:48:27.730Z,7.90
2023-05-05T04:50:56.307Z,7.30
2023-05-05T04:53:25.424Z,8.10
2023-05-05T04:55:55.246Z,7.10
2023-05-05T04:58:24.105Z,7.80
2023-05-05T05:00:52.924Z,7.90
2023-05-05T05:03:21.824Z,8.90
2023-05-05T05:05:51.099Z,8.90
2023-05-05T05:08:19.905Z,9.30
2023-05-05T05:10:48.682Z,8.70
2023-05-05T05:13:17.834Z,8.40
2023-05-05T05:15:46.757Z,9.30
2023-05-05T05:18:15.759Z,9.00
2023-05-05T05:20:44.634Z,7.80
2023-05-05T05:23:13.441Z,7.70
2023-05-05T05:25:44.382Z,7.80
2023-05-05T05:28:13.654Z,8.30
2023-05-05T05:30:47.176Z,8.90
2023-05-05T05:33:16.905Z,8.40
2023-05-05T05:35:46.894Z,9.90
2023-05-05T05:38:16.222Z,9.00
2023-05-05T05:40:45.200Z,8.80
2023-05-05T05:43:14.700Z,8.10
2023-05-05T05:45:43.817Z,8.00
2023-05-05T05:48:12.462Z,8.30
2023-05-05T05:50:41.381Z,9.00
2023-05-05T05:53:11.178Z,8.60
2023-05-05T05:55:40.414Z,9.20
2023-05-05T05:58:09.355Z,8.90
2023-05-05T06:00:38.248Z,9.50
2023-05-05T06:03:08.478Z,9.70
2023-05-05T06:05:39.297Z,8.50
2023-05-05T06:08:08.717Z,8.00
2023-05-05T06:10:42.097Z,9.10
2023-05-05T06:13:14.290Z,8.80
2023-05-05T06:15:45.635Z,7.40
2023-05-05T06:18:15.007Z,9.60
2023-05-05T06:20:43.996Z,8.80
2023-05-05T06:23:13.616Z,7.80
2023-05-05T06:25:46.432Z,7.50
2023-05-05T06:28:15.386Z,9.00
2023-05-05T06:30:43.962Z,9.20
2023-05-05T06:33:12.964Z,8.20
2023-05-05T06:35:41.971Z,7.10
2023-05-05T06:38:10.905Z,7.50
2023-05-05T06:40:39.532Z,7.90
2023-05-05T06:43:09.146Z,7.40
2023-05-05T06:45:43.891Z,8.50
2023-05-05T06:48:13.894Z,7.00
2023-05-05T06:50:43.116Z,7.30
2023-05-05T06:53:12.193Z,8.30
2023-05-05T06:55:44.553Z,8.20
2023-05-05T06:58:13.554Z,8.20
2023-05-05T07:00:42.676Z,8.30
2023-05-05T07:03:11.388Z,8.20
2023-05-05T07:05:40.320Z,8.10
2023-05-05T07:08:09.634Z,7.90
2023-05-05T07:10:39.712Z,7.10
2023-05-05T07:13:08.909Z,8.20
2023-05-05T07:15:38.262Z,7.60
2023-05-05T07:18:07.331Z,7.30
2023-05-05T07:20:36.334Z,7.10
2023-05-05T07:23:05.644Z,7.50
2023-05-05T07:25:36.014Z,7.00
2023-05-05T07:28:04.854Z,5.80
2023-05-05T07:30:34.682Z,7.00
2023-05-05T07:33:04.276Z,6.60
2023-05-05T07:35:33.401Z,7.90
2023-05-05T07:38:02.141Z,6.60
2023-05-05T07:40:30.864Z,6.20
2023-05-05T07:43:00.136Z,5.50
2023-05-05T07:45:31.984Z,7.10
2023-05-05T07:48:00.759Z,6.30
2023-05-05T07:50:29.600Z,6.50
2023-05-05T07:53:10.889Z,5.70
2023-05-05T07:55:43.552Z,5.90
2023-05-05T07:58:12.545Z,6.10
2023-05-05T08:00:41.309Z,6.90
2023-05-05T08:03:12.004Z,5.90
2023-05-05T08:05:41.038Z,6.10
2023-05-05T08:08:10.231Z,6.00
2023-05-05T08:10:40.038Z,6.90
2023-05-05T08:13:09.584Z,6.60
2023-05-05T08:15:38.366Z,6.80
2023-05-05T08:18:07.382Z,5.70
2023-05-05T08:20:37.060Z,6.30
2023-05-05T08:23:05.605Z,9.80
2023-05-05T08:25:34.456Z,7.30
2023-05-05T08:28:03.341Z,6.70
2023-05-05T08:30:32.398Z,5.80
2023-05-05T08:33:01.047Z,7.10
2023-05-05T08:35:29.967Z,6.10
2023-05-05T08:37:59.242Z,5.40
2023-05-05T08:40:34.404Z,5.40
2023-05-05T08:43:03.851Z,5.20
2023-05-05T08:45:33.153Z,4.60
2023-05-05T08:48:05.422Z,5.70
2023-05-05T08:50:37.142Z,7.40
2023-05-05T08:53:11.032Z,5.60
2023-05-05T08:56:02.084Z,6.00
2023-05-05T08:58:38.907Z,6.50
2023-05-05T09:01:11.743Z,6.40
2023-05-05T09:03:42.289Z,6.20
2023-05-05T09:06:11.489Z,5.90
2023-05-05T09:08:40.429Z,5.90
2023-05-05T09:11:09.207Z,5.70
2023-05-05T09:16:24.005Z,5.30
2023-05-05T09:19:02.481Z,4.30
2023-05-05T09:21:31.397Z,4.40
2023-05-05T09:24:11.544Z,4.10
2023-05-05T09:26:43.911Z,3.90
2023-05-05T09:29:23.200Z,4.60
2023-05-05T09:32:12.947Z,3.70
2023-05-05T09:34:41.939Z,3.70
2023-05-05T09:37:10.613Z,4.30
2023-05-05T09:39:54.596Z,4.40
2023-05-05T09:42:23.704Z,4.40
2023-05-05T09:44:52.455Z,3.10
2023-05-05T09:47:29.047Z,3.50
2023-05-05T09:49:59.277Z,3.30
2023-05-05T09:52:31.254Z,3.50
2023-05-05T09:55:00.678Z,3.40
2023-05-05T09:57:35.728Z,2.60
2023-05-05T10:00:07.314Z,3.30
2023-05-05T10:02:39.029Z,3.70
2023-05-05T10:05:11.958Z,3.40
2023-05-05T10:07:42.462Z,3.10
2023-05-05T10:10:18.525Z,2.80
2023-05-05T10:12:48.366Z,2.70
2023-05-05T10:15:17.342Z,3.20
2023-05-05T10:20:21.564Z,3.00
2023-05-05T10:22:53.360Z,3.00
2023-05-05T10:25:31.387Z,3.20
2023-05-05T10:28:01.993Z,2.90
2023-05-05T10:30:32.437Z,3.00
2023-05-05T10:33:27.260Z,3.00
2023-05-05T10:35:57.534Z,2.90
2023-05-05T10:38:31.303Z,2.70
2023-05-05T10:41:03.512Z,3.00
2023-05-05T10:43:35.704Z,2.60
2023-05-05T10:46:07.113Z,2.50
2023-05-05T10:49:00.716Z,2.50
2023-05-05T10:51:58.503Z,2.40
2023-05-05T10:54:46.709Z,2.50
2023-05-05T10:57:20.248Z,2.80
2023-05-05T10:59:49.904Z,3.00
2023-05-05T11:02:27.071Z,2.70
2023-05-05T11:05:22.999Z,2.80
2023-05-05T11:07:53.840Z,2.60
2023-05-05T11:10:23.949Z,3.00
2023-05-05T11:12:52.923Z,2.40
2023-05-05T11:15:24.813Z,2.20
2023-05-05T11:17:57.716Z,2.40
2023-05-05T11:20:40.724Z,3.00
2023-05-05T11:23:09.697Z,2.80
2023-05-05T11:25:41.244Z,3.10
2023-05-05T11:28:16.934Z,3.10
2023-05-05T11:30:56.315Z,2.50
2023-05-05T11:33:30.506Z,2.70
2023-05-05T11:36:06.082Z,3.00
2023-05-05T11:39:12.472Z,2.60
2023-05-05T11:42:10.921Z,2.80
2023-05-05T11:44:39.959Z,2.80
2023-05-05T11:47:10.569Z,2.50
2023-05-05T11:49:40.259Z,2.70
2023-05-05T11:52:14.012Z,2.70
2023-05-05T11:54:50.885Z,3.10
2023-05-05T11:57:29.088Z,2.90
2023-05-05T12:00:08.618Z,2.40
2023-05-05T12:02:37.732Z,2.90
2023-05-05T12:05:07.641Z,2.90
2023-05-05T12:07:36.615Z,2.80
2023-05-05T12:10:05.956Z,2.50
2023-05-05T12:12:39.750Z,2.60
2023-05-05T12:15:10.056Z,2.90
2023-05-05T12:17:45.332Z,2.50
2023-05-05T12:20:14.276Z,2.40
2023-05-05T12:22:44.283Z,2.50
2023-05-05T12:25:12.984Z,2.50
2023-05-05T12:27:52.629Z,2.20
2023-05-05T12:30:22.769Z,2.70
2023-05-05T12:32:51.771Z,2.70
2023-05-05T12:35:22.439Z,2.10
2023-05-05T12:37:52.183Z,2.70
2023-05-05T12:40:46.865Z,2.70
2023-05-05T12:43:45.797Z,2.80
2023-05-05T12:46:15.259Z,2.50
2023-05-05T12:48:47.943Z,2.20
2023-05-05T12:51:19.716Z,2.50
2023-05-05T12:53:50.366Z,2.60
2023-05-05T12:56:31.728Z,2.60
2023-05-05T12:59:02.729Z,2.20
2023-05-05T13:01:34.784Z,2.70
2023-05-05T13:04:08.737Z,2.10
2023-05-05T13:06:48.288Z,2.10
2023-05-05T13:09:27.742Z,2.30
2023-05-05T13:11:57.480Z,2.10
2023-05-05T13:14:26.972Z,1.50
2023-05-05T13:16:56.226Z,2.00
2023-05-05T13:19:25.746Z,2.30
2023-05-05T13:21:58.616Z,2.50
2023-05-05T13:24:42.228Z,2.40
2023-05-05T13:27:15.963Z,2.30
2023-05-05T13:29:45.898Z,2.00
2023-05-05T13:32:14.888Z,2.60
2023-05-05T13:34:44.519Z,2.90
2023-05-05T13:37:14.286Z,2.60
2023-05-05T13:39:43.902Z,2.00
2023-05-05T13:42:12.686Z,2.10
2023-05-05T13:44:41.683Z,2.00
2023-05-05T13:47:10.687Z,2.20
2023-05-05T13:49:40.168Z,2.40
2023-05-05T13:52:09.681Z,1.90
2023-05-05T13:54:38.657Z,2.50
2023-05-05T13:57:08.390Z,2.20
2023-05-05T13:59:37.691Z,2.10
2023-05-05T14:02:06.782Z,2.00
2023-05-05T14:04:35.800Z,2.10
2023-05-05T14:07:05.501Z,2.10
2023-05-05T14:09:34.596Z,2.60
2023-05-05T14:12:04.170Z,2.20
2023-05-05T14:14:32.781Z,2.20
2023-05-05T14:17:02.797Z,1.80
2023-05-05T14:19:31.975Z,1.90
2023-05-05T14:22:00.784Z,2.10
2023-05-05T14:24:29.551Z,2.30
2023-05-05T14:26:58.865Z,2.50
2023-05-05T14:29:27.747Z,2.00
2023-05-05T14:31:56.570Z,2.50
2023-05-05T14:34:26.229Z,2.00
2023-05-05T14:36:55.015Z,2.30
2023-05-05T14:39:24.651Z,2.00
2023-05-05T14:41:53.839Z,2.10
2023-05-05T14:44:23.026Z,2.20
2023-05-05T14:46:53.152Z,2.30
2023-05-05T14:49:22.038Z,2.40
2023-05-05T14:51:51.229Z,2.40
2023-05-05T14:54:27.344Z,2.30
2023-05-05T14:56:59.292Z,2.40
2023-05-05T14:59:28.140Z,2.20
2023-05-05T15:01:57.486Z,2.20
2023-05-05T15:04:26.546Z,2.50
2023-05-05T15:06:55.847Z,1.90
2023-05-05T15:09:24.936Z,2.30
2023-05-05T15:11:53.726Z,2.40
2023-05-05T15:14:22.853Z,2.40
2023-05-05T15:16:52.238Z,2.00
2023-05-05T15:19:21.227Z,2.10
2023-05-05T15:21:53.681Z,2.10
2023-05-05T15:24:22.933Z,2.30
2023-05-05T15:26:51.906Z,2.20
2023-05-05T15:29:22.418Z,2.20
2023-05-05T15:31:52.724Z,2.40
2023-05-05T15:34:22.644Z,2.10
2023-05-05T15:36:52.062Z,2.30
2023-05-05T15:39:21.571Z,2.40
2023-05-05T15:41:50.333Z,2.40
2023-05-05T15:44:19.496Z,2.10
2023-05-05T15:46:50.516Z,2.60
2023-05-05T15:49:19.361Z,2.10
2023-05-05T15:51:49.100Z,2.40
2023-05-05T15:54:18.304Z,1.70
2023-05-05T15:56:48.828Z,2.10
2023-05-05T15:59:19.186Z,2.20
2023-05-05T16:01:49.646Z,2.30
2023-05-05T16:04:18.647Z,2.20
2023-05-05T16:06:48.468Z,2.00
2023-05-05T16:09:18.984Z,2.10
2023-05-05T16:11:48.091Z,2.20
2023-05-05T16:14:18.066Z,2.40
2023-05-05T16:16:47.651Z,2.20
2023-05-05T16:19:17.476Z,2.40
2023-05-05T16:22:08.641Z,1.90
2023-05-05T16:24:39.580Z,2.20
2023-05-05T16:27:09.010Z,2.00
2023-05-05T16:29:37.879Z,2.10
2023-05-05T16:32:07.074Z,2.00
2023-05-05T16:34:36.263Z,1.90
2023-05-05T16:37:06.841Z,2.10
2023-05-05T16:39:45.986Z,2.00
2023-05-05T16:42:16.758Z,2.00
2023-05-05T16:44:47.284Z,1.60
2023-05-05T16:47:18.040Z,2.10
2023-05-05T16:49:47.720Z,2.30
2023-05-05T16:52:17.034Z,2.10
2023-05-05T16:54:47.360Z,1.70
2023-05-05T16:57:16.457Z,1.90
2023-05-05T16:59:45.349Z,1.90
2023-05-05T17:02:14.729Z,1.90
2023-05-05T17:04:44.353Z,1.70
2023-05-05T17:07:14.064Z,2.00
2023-05-05T17:09:43.878Z,1.90
2023-05-05T17:12:13.574Z,2.50
2023-05-05T17:14:48.416Z,1.90
2023-05-05T17:17:17.914Z,2.20
2023-05-05T17:19:47.217Z,2.30
2023-05-05T17:22:17.236Z,2.20
2023-05-05T17:24:57.783Z,2.20
2023-05-05T17:27:27.607Z,2.00
2023-05-05T17:29:57.218Z,2.20
2023-05-05T17:32:27.083Z,2.30
2023-05-05T17:34:57.504Z,2.20
2023-05-05T17:37:29.748Z,2.40
2023-05-05T17:40:00.334Z,2.30
2023-05-05T17:42:33.625Z,2.70
2023-05-05T17:45:04.519Z,2.90
2023-05-05T17:47:34.958Z,2.70
2023-05-05T17:50:04.530Z,2.50
2023-05-05T17:52:34.955Z,2.30
2023-05-05T17:55:07.128Z,2.50
2023-05-05T17:57:38.977Z,2.40
2023-05-05T18:00:10.790Z,2.60
2023-05-05T18:02:42.752Z,2.60
2023-05-05T18:05:13.617Z,2.50
2023-05-05T18:07:47.854Z,2.60
2023-05-05T18:10:17.326Z,3.20
2023-05-05T18:12:46.498Z,3.40
2023-05-05T18:15:16.733Z,4.30
2023-05-05T18:17:49.173Z,3.20
2023-05-05T18:20:24.582Z,3.40
2023-05-05T18:22:58.508Z,3.30
2023-05-05T18:25:30.192Z,3.80
2023-05-05T18:28:00.719Z,3.80
2023-05-05T18:30:31.045Z,3.50
2023-05-05T18:33:01.283Z,3.40
2023-05-05T18:35:30.217Z,3.50
2023-05-05T18:37:59.315Z,2.80
2023-05-05T18:40:28.610Z,3.20
2023-05-05T18:42:58.065Z,3.40
2023-05-05T18:45:27.879Z,2.90
2023-05-05T18:47:57.462Z,3.60
2023-05-05T18:50:27.349Z,3.50
2023-05-05T18:52:57.351Z,4.00
2023-05-05T18:55:26.671Z,3.90
2023-05-05T18:57:55.781Z,3.80
2023-05-05T19:00:24.988Z,4.20
2023-05-05T19:02:54.740Z,4.00
2023-05-05T19:05:24.717Z,4.40
2023-05-05T19:07:53.797Z,4.20
2023-05-05T19:10:24.475Z,3.80
2023-05-05T19:12:53.573Z,4.30
2023-05-05T19:15:23.158Z,4.40
2023-05-05T19:17:53.554Z,4.30
2023-05-05T19:20:23.359Z,4.30
2023-05-05T19:22:53.252Z,3.80
2023-05-05T19:25:22.568Z,4.70
2023-05-05T19:27:51.363Z,4.50
2023-05-05T19:30:22.956Z,4.30
2023-05-05T19:32:52.326Z,3.90
2023-05-05T19:35:23.065Z,4.50
2023-05-05T19:37:52.154Z,4.10
2023-05-05T19:40:21.235Z,4.50
2023-05-05T19:42:50.755Z,4.20
2023-05-05T19:45:20.549Z,4.40
2023-05-05T19:47:50.797Z,4.60
2023-05-05T19:50:22.219Z,4.90
2023-05-05T19:52:51.125Z,4.50
2023-05-05T19:55:21.259Z,4.00
2023-05-05T19:57:50.039Z,4.90
2023-05-05T20:00:21.295Z,4.30
2023-05-05T20:02:50.102Z,4.40
2023-05-05T20:05:19.259Z,4.10
2023-05-05T20:07:48.256Z,4.30
2023-05-05T20:10:18.894Z,3.80
2023-05-05T20:12:51.381Z,4.50
2023-05-05T20:15:22.561Z,4.10
2023-05-05T20:17:52.462Z,4.10
2023-05-05T20:20:23.860Z,3.80
2023-05-05T20:22:53.487Z,3.50
2023-05-05T20:25:22.503Z,3.80
2023-05-05T20:27:54.511Z,3.80
2023-05-05T20:30:25.105Z,4.20
2023-05-05T20:32:54.945Z,4.00
2023-05-05T20:35:24.686Z,3.20
2023-05-05T20:37:53.355Z,4.00
2023-05-05T20:40:22.285Z,4.80
2023-05-05T20:42:51.361Z,4.50
2023-05-05T20:45:20.161Z,4.10
2023-05-05T20:47:49.151Z,3.80
2023-05-05T20:50:21.021Z,4.20
2023-05-05T20:52:50.086Z,4.20
2023-05-05T20:55:18.906Z,3.80
2023-05-05T20:57:48.799Z,3.60
2023-05-05T21:00:20.949Z,3.80
2023-05-05T21:02:50.876Z,3.80
2023-05-05T21:05:20.168Z,3.60
2023-05-05T21:07:49.177Z,3.60
2023-05-05T21:10:18.368Z,4.50
2023-05-05T21:12:47.925Z,3.90
2023-05-05T21:15:17.177Z,4.50
2023-05-05T21:17:46.092Z,4.00
2023-05-05T21:20:16.304Z,4.60
2023-05-05T21:22:46.304Z,4.20
2023-05-05T21:25:19.500Z,4.00
2023-05-05T21:27:48.951Z,4.30
2023-05-05T21:30:18.213Z,4.40
2023-05-05T21:32:47.135Z,3.40
2023-05-05T21:35:16.311Z,3.30
2023-05-05T21:37:45.604Z,3.70
2023-05-05T21:40:16.577Z,4.10
2023-05-05T21:42:45.311Z,4.00
2023-05-05T21:45:14.624Z,4.50
2023-05-05T21:47:43.782Z,4.80
2023-05-05T21:50:12.815Z,4.20
2023-05-05T21:52:42.045Z,4.20
2023-05-05T21:55:11.601Z,4.40
2023-05-05T21:57:40.427Z,3.90
2023-05-05T22:00:10.257Z,4.30
2023-05-05T22:02:46.465Z,4.80
2023-05-05T22:05:15.689Z,3.60
2023-05-05T22:07:44.455Z,3.90
2023-05-05T22:10:13.132Z,3.30
2023-05-05T22:12:41.987Z,4.30
2023-05-05T22:15:11.705Z,4.10
2023-05-05T22:17:40.637Z,4.40
2023-05-05T22:20:10.822Z,4.00
2023-05-05T22:22:39.934Z,3.80
2023-05-05T22:25:09.510Z,4.00
2023-05-05T22:27:39.258Z,4.40
2023-05-05T22:30:09.519Z,4.60
2023-05-05T22:32:39.266Z,4.30
2023-05-05T22:35:09.604Z,4.30
2023-05-05T22:37:38.399Z,4.80
2023-05-05T22:40:10.517Z,3.90
2023-05-05T22:42:39.480Z,4.00
2023-05-05T22:45:10.305Z,4.10
2023-05-05T22:47:39.558Z,3.90
2023-05-05T22:50:10.061Z,3.90
2023-05-05T22:52:39.234Z,3.70
2023-05-05T22:55:09.347Z,4.30
2023-05-05T22:57:38.652Z,3.80
2023-05-05T23:00:11.702Z,4.10
2023-05-05T23:02:40.691Z,3.40
2023-05-05T23:05:10.338Z,3.80
2023-05-05T23:07:39.450Z,4.10
2023-05-05T23:10:09.166Z,3.60
2023-05-05T23:12:38.755Z,4.10
2023-05-05T23:15:08.556Z,4.30
2023-05-05T23:17:37.524Z,4.90
2023-05-05T23:20:09.843Z,4.40
2023-05-05T23:22:38.416Z,3.80
2023-05-05T23:25:08.543Z,4.50
2023-05-05T23:27:40.562Z,4.60
2023-05-05T23:30:09.901Z,3.90
2023-05-05T23:32:38.602Z,4.10
2023-05-05T23:35:08.159Z,3.70
2023-05-05T23:37:37.086Z,4.00
2023-05-05T23:40:07.239Z,4.10
2023-05-05T23:42:36.405Z,3.50
2023-05-05T23:45:06.264Z,3.60
2023-05-05T23:47:35.289Z,4.50
2023-05-05T23:50:04.678Z,4.20
2023-05-05T23:52:33.599Z,3.80
2023-05-05T23:55:02.476Z,4.40
2023-05-05T23:57:31.373Z,3.90
